createdAt,value
2023-02-12T00:02:05.647Z,-4.91
2023-02-12T00:05:11.644Z,-4.48
2023-02-12T00:08:17.854Z,-5.45
2023-02-12T00:11:25.869Z,-4.87
2023-02-12T00:14:34.702Z,-5.15
2023-02-12T00:17:40.905Z,-4.83
2023-02-12T00:20:47.322Z,-4.92
2023-02-12T00:23:53.736Z,-4.76
2023-02-12T00:27:00.210Z,-4.78
2023-02-12T00:30:09.239Z,-4.77
2023-02-12T00:33:15.340Z,-4.52
2023-02-12T00:36:24.515Z,-4.53
2023-02-12T00:39:30.734Z,-4.89
2023-02-12T00:42:37.211Z,-4.80
2023-02-12T00:45:46.056Z,-4.12
2023-02-12T00:48:52.670Z,-4.54
2023-02-12T00:51:59.046Z,-4.31
2023-02-12T00:55:06.187Z,-5.12
2023-02-12T00:58:12.584Z,-4.78
2023-02-12T01:01:20.469Z,-4.80
2023-02-12T01:04:26.849Z,-4.83
2023-02-12T01:07:33.389Z,-4.83
2023-02-12T01:10:39.774Z,-4.61
2023-02-12T01:13:46.283Z,-4.32
2023-02-12T01:16:54.198Z,-4.44
2023-02-12T01:20:00.954Z,-4.32
2023-02-12T01:23:08.635Z,-4.15
2023-02-12T01:26:16.375Z,-4.55
2023-02-12T01:29:22.473Z,-4.59
2023-02-12T01:32:30.203Z,-4.24
2023-02-12T01:35:38.426Z,-4.40
2023-02-12T01:38:45.068Z,-4.17
2023-02-12T01:41:51.337Z,-4.11
2023-02-12T01:45:41.251Z,-4.50
2023-02-12T01:48:49.844Z,-4.22
2023-02-12T01:51:59.526Z,-4.72
2023-02-12T01:55:08.755Z,-4.48
2023-02-12T01:58:16.096Z,-4.25
2023-02-12T02:01:25.905Z,-4.58
2023-02-12T02:04:38.623Z,-4.92
2023-02-12T02:07:45.669Z,-4.61
2023-02-12T02:10:52.431Z,-4.97
2023-02-12T02:14:16.571Z,-4.48
2023-02-12T02:17:36.176Z,-4.73
2023-02-12T02:21:19.445Z,-4.58
2023-02-12T02:24:49.069Z,-4.88
2023-02-12T02:28:08.174Z,-4.99
2023-02-12T02:31:18.991Z,-5.38
2023-02-12T02:34:34.245Z,-5.33
2023-02-12T02:37:47.389Z,-5.58
2023-02-12T02:40:57.811Z,-5.04
2023-02-12T02:44:09.130Z,-4.94
2023-02-12T02:47:20.327Z,-5.28
2023-02-12T02:50:30.584Z,-4.96
2023-02-12T02:53:40.901Z,-4.95
2023-02-12T02:56:51.935Z,-4.84
2023-02-12T03:00:05.315Z,-4.55
2023-02-12T03:03:21.256Z,-5.74
2023-02-12T03:06:31.890Z,-6.27
2023-02-12T03:09:41.308Z,-6.08
2023-02-12T03:12:53.367Z,-6.20
2023-02-12T03:16:03.970Z,-6.33
2023-02-12T03:19:19.324Z,-5.72
2023-02-12T03:22:32.744Z,-5.91
2023-02-12T03:25:45.868Z,-5.51
2023-02-12T03:28:52.946Z,-5.66
2023-02-12T03:32:15.497Z,-5.74
2023-02-12T03:35:27.608Z,-6.01
2023-02-12T03:38:38.875Z,-6.29
2023-02-12T03:41:49.406Z,-5.74
2023-02-12T03:45:01.113Z,-5.68
2023-02-12T03:48:12.656Z,-5.77
2023-02-12T03:51:25.205Z,-6.16
2023-02-12T03:54:32.024Z,-6.08
2023-02-12T03:57:42.524Z,-6.66
2023-02-12T04:00:49.374Z,-6.45
2023-02-12T04:03:55.578Z,-6.89
2023-02-12T04:07:03.486Z,-6.66
2023-02-12T04:10:10.864Z,-6.73
2023-02-12T04:13:22.685Z,-6.10
2023-02-12T04:16:36.931Z,-6.16
2023-02-12T04:19:56.765Z,-5.84
2023-02-12T04:23:13.188Z,-5.93
2023-02-12T04:26:26.296Z,-5.83
2023-02-12T04:29:44.414Z,-6.00
2023-02-12T04:32:55.224Z,-6.09
2023-02-12T04:36:04.577Z,-6.33
2023-02-12T04:39:17.633Z,-6.32
2023-02-12T04:42:24.510Z,-6.22
2023-02-12T04:45:33.186Z,-6.27
2023-02-12T04:48:54.646Z,-5.84
2023-02-12T04:52:00.981Z,-5.76
2023-02-12T04:55:09.367Z,-5.68
2023-02-12T04:58:15.592Z,-5.62
2023-02-12T05:04:46.374Z,-5.63
2023-02-12T05:07:52.775Z,-6.15
2023-02-12T05:11:05.622Z,-5.58
2023-02-12T05:14:12.566Z,-5.93
2023-02-12T05:17:18.577Z,-5.98
2023-02-12T05:20:24.964Z,-5.51
2023-02-12T05:23:33.087Z,-5.43
2023-02-12T05:26:41.088Z,-5.27
2023-02-12T05:29:47.305Z,-5.08
2023-02-12T05:32:53.608Z,-5.42
2023-02-12T05:36:05.644Z,-5.32
2023-02-12T05:39:12.519Z,-5.06
2023-02-12T05:42:20.036Z,-4.99
2023-02-12T05:45:28.142Z,-4.95
2023-02-12T05:48:35.474Z,-5.29
2023-02-12T05:51:41.989Z,-4.90
2023-02-12T05:54:50.875Z,-4.66
2023-02-12T05:57:58.846Z,-4.46
2023-02-12T06:01:10.317Z,-4.37
2023-02-12T06:04:17.880Z,-4.73
2023-02-12T06:07:24.417Z,-4.31
2023-02-12T06:10:30.328Z,-4.10
2023-02-12T06:13:37.985Z,-3.94
2023-02-12T06:16:47.931Z,-3.94
2023-02-12T06:19:54.063Z,-3.94
2023-02-12T06:23:00.317Z,-3.85
2023-02-12T06:26:06.397Z,-3.63
2023-02-12T06:29:14.577Z,-3.43
2023-02-12T06:32:21.103Z,-3.30
2023-02-12T06:35:27.480Z,-3.62
2023-02-12T06:38:36.544Z,-3.20
2023-02-12T06:41:44.090Z,-3.14
2023-02-12T06:44:53.047Z,-3.12
2023-02-12T06:47:59.670Z,-3.00
2023-02-12T06:51:08.129Z,-2.90
2023-02-12T06:54:16.093Z,-2.74
2023-02-12T06:57:23.022Z,-2.61
2023-02-12T07:00:30.625Z,-2.50
2023-02-12T07:03:37.096Z,-2.55
2023-02-12T07:06:42.970Z,-2.48
2023-02-12T07:09:49.273Z,-2.13
2023-02-12T07:12:55.868Z,-2.08
2023-02-12T07:16:07.105Z,-2.01
2023-02-12T07:19:16.810Z,-1.90
2023-02-12T07:22:23.178Z,-2.13
2023-02-12T07:25:29.486Z,-1.93
2023-02-12T07:28:36.248Z,-1.95
2023-02-12T07:31:45.046Z,-1.63
2023-02-12T07:34:51.284Z,-1.70
2023-02-12T07:37:57.378Z,-1.41
2023-02-12T07:41:12.310Z,-1.34
2023-02-12T07:44:19.036Z,-1.28
2023-02-12T07:47:26.778Z,-1.04
2023-02-12T07:50:33.245Z,-0.87
2023-02-12T07:53:39.716Z,-0.94
2023-02-12T07:56:47.721Z,-0.53
2023-02-12T07:59:54.367Z,-0.48
2023-02-12T08:03:01.832Z,-0.30
2023-02-12T08:06:12.575Z,-0.18
2023-02-12T08:09:20.845Z,-0.43
2023-02-12T08:12:27.382Z,-0.30
2023-02-12T08:15:33.577Z,-0.46
2023-02-12T08:18:41.560Z,-0.57
2023-02-12T08:21:51.523Z,-0.17
2023-02-12T08:24:58.130Z,0.12
2023-02-12T08:28:04.756Z,0.37
2023-02-12T08:31:12.717Z,0.38
2023-02-12T08:34:22.142Z,0.18
2023-02-12T08:37:28.209Z,0.33
2023-02-12T08:40:34.918Z,0.42
2023-02-12T08:43:42.456Z,0.53
2023-02-12T08:46:50.399Z,0.63
2023-02-12T08:49:57.980Z,0.94
2023-02-12T08:53:04.520Z,1.19
2023-02-12T08:56:11.820Z,1.41
2023-02-12T08:59:18.700Z,1.60
2023-02-12T09:02:25.030Z,1.78
2023-02-12T09:05:32.511Z,1.38
2023-02-12T09:08:39.823Z,1.91
2023-02-12T09:11:45.966Z,2.25
2023-02-12T09:14:52.240Z,2.28
2023-02-12T09:17:58.301Z,2.59
2023-02-12T09:21:08.136Z,2.06
2023-02-12T09:24:14.290Z,2.14
2023-02-12T09:27:20.785Z,2.37
2023-02-12T09:30:27.100Z,2.30
2023-02-12T09:33:33.779Z,2.67
2023-02-12T09:36:41.322Z,2.95
2023-02-12T09:39:50.167Z,2.82
2023-02-12T09:43:08.050Z,3.21
2023-02-12T09:46:21.933Z,3.09
2023-02-12T09:49:49.788Z,3.28
2023-02-12T09:52:59.270Z,3.59
2023-02-12T09:56:12.965Z,3.92
2023-02-12T09:59:30.087Z,4.20
2023-02-12T10:02:37.412Z,3.56
2023-02-12T10:05:49.389Z,4.15
2023-02-12T10:09:04.119Z,4.31
2023-02-12T10:12:17.718Z,4.31
2023-02-12T10:15:38.781Z,4.16
2023-02-12T10:19:00.904Z,4.44
2023-02-12T10:22:21.553Z,4.44
2023-02-12T10:25:37.924Z,4.66
2023-02-12T10:28:44.979Z,4.57
2023-02-12T10:35:13.644Z,4.87
2023-02-12T10:38:23.691Z,5.01
2023-02-12T10:41:33.372Z,4.89
2023-02-12T10:44:39.661Z,5.46
2023-02-12T10:47:47.357Z,5.13
2023-02-12T10:51:07.529Z,5.27
2023-02-12T10:54:45.032Z,5.70
2023-02-12T10:57:52.910Z,5.26
2023-02-12T11:01:00.899Z,4.88
2023-02-12T11:04:22.736Z,4.78
2023-02-12T11:07:30.154Z,5.10
2023-02-12T11:10:39.948Z,5.13
2023-02-12T11:13:54.993Z,5.55
2023-02-12T11:17:02.830Z,5.32
2023-02-12T11:20:23.599Z,5.04
2023-02-12T11:23:31.796Z,5.05
2023-02-12T11:26:37.729Z,4.91
2023-02-12T11:29:48.881Z,5.46
2023-02-12T11:32:55.211Z,5.40
2023-02-12T11:36:07.057Z,5.26
2023-02-12T11:39:23.055Z,6.31
2023-02-12T11:42:34.738Z,5.38
2023-02-12T11:45:47.970Z,5.60
2023-02-12T11:48:56.803Z,5.53
2023-02-12T11:52:04.949Z,5.21
2023-02-12T11:55:23.411Z,6.07
2023-02-12T11:58:30.724Z,5.65
2023-02-12T12:01:41.922Z,5.59
2023-02-12T12:04:53.141Z,5.75
2023-02-12T12:08:03.708Z,5.46
2023-02-12T12:11:17.935Z,5.78
2023-02-12T12:14:30.396Z,5.61
2023-02-12T12:18:02.992Z,5.45
2023-02-12T12:21:14.858Z,6.21
2023-02-12T12:24:25.936Z,5.71
2023-02-12T12:27:55.010Z,5.59
2023-02-12T12:31:08.123Z,5.04
2023-02-12T12:34:18.224Z,5.56
2023-02-12T12:37:34.485Z,5.73
2023-02-12T12:40:51.379Z,5.57
2023-02-12T12:44:08.495Z,5.66
2023-02-12T12:47:25.684Z,5.70
2023-02-12T12:50:53.226Z,5.86
2023-02-12T12:54:13.840Z,5.92
2023-02-12T12:57:33.681Z,6.12
2023-02-12T13:00:58.088Z,5.63
2023-02-12T13:04:33.882Z,5.81
2023-02-12T13:07:52.060Z,6.04
2023-02-12T13:11:04.709Z,6.12
2023-02-12T13:14:28.885Z,6.49
2023-02-12T13:17:46.068Z,6.03
2023-02-12T13:21:01.272Z,6.65
2023-02-12T13:24:22.424Z,6.73
2023-02-12T13:27:34.251Z,6.29
2023-02-12T13:30:46.485Z,6.32
2023-02-12T13:33:56.172Z,6.61
2023-02-12T13:37:04.020Z,6.49
2023-02-12T13:40:18.703Z,6.53
2023-02-12T13:43:37.830Z,6.05
2023-02-12T13:46:54.716Z,6.38
2023-02-12T13:50:08.444Z,6.45
2023-02-12T13:53:24.092Z,6.38
2023-02-12T13:56:41.729Z,6.06
2023-02-12T13:59:50.161Z,5.87
2023-02-12T14:02:57.046Z,6.19
2023-02-12T14:06:16.724Z,6.27
2023-02-12T14:09:34.174Z,5.89
2023-02-12T14:12:43.086Z,5.42
2023-02-12T14:15:52.768Z,5.03
2023-02-12T14:19:32.419Z,5.47
2023-02-12T14:23:02.826Z,5.13
2023-02-12T14:26:13.079Z,4.61
2023-02-12T14:29:22.080Z,4.52
2023-02-12T14:32:58.358Z,4.58
2023-02-12T14:36:17.613Z,4.20
2023-02-12T14:39:31.169Z,4.31
2023-02-12T14:42:45.218Z,4.08
2023-02-12T14:45:52.863Z,4.25
2023-02-12T14:49:05.017Z,4.37
2023-02-12T14:52:17.938Z,3.98
2023-02-12T14:55:28.731Z,3.89
2023-02-12T14:58:35.068Z,4.00
2023-02-12T15:01:44.129Z,3.78
2023-02-12T15:04:52.992Z,3.97
2023-02-12T15:08:01.987Z,4.09
2023-02-12T15:11:21.421Z,3.82
2023-02-12T15:14:32.246Z,3.88
2023-02-12T15:17:43.671Z,4.14
2023-02-12T15:20:56.123Z,3.95
2023-02-12T15:24:11.194Z,3.88
2023-02-12T15:27:18.475Z,3.81
2023-02-12T15:30:27.886Z,3.51
2023-02-12T15:33:37.157Z,3.47
2023-02-12T15:36:47.450Z,3.63
2023-02-12T15:39:57.270Z,3.39
2023-02-12T15:43:05.578Z,3.21
2023-02-12T15:46:19.090Z,3.55
2023-02-12T15:49:32.379Z,3.44
2023-02-12T15:52:41.370Z,3.41
2023-02-12T15:55:50.420Z,3.52
2023-02-12T15:58:59.108Z,3.23
2023-02-12T16:02:05.846Z,3.16
2023-02-12T16:05:17.963Z,3.03
2023-02-12T16:08:25.569Z,3.21
2023-02-12T16:11:33.454Z,3.15
2023-02-12T16:14:44.819Z,2.99
2023-02-12T16:17:51.089Z,3.14
2023-02-12T16:21:07.795Z,3.01
2023-02-12T16:24:26.737Z,3.29
2023-02-12T16:27:35.275Z,3.38
2023-02-12T16:30:44.307Z,3.05
2023-02-12T16:33:53.396Z,2.91
2023-02-12T16:37:01.219Z,3.09
2023-02-12T16:40:31.011Z,3.13
2023-02-12T16:43:36.998Z,3.30
2023-02-12T16:46:48.103Z,3.27
2023-02-12T16:49:57.940Z,3.02
2023-02-12T16:53:06.933Z,2.91
2023-02-12T16:56:18.355Z,3.12
2023-02-12T16:59:24.969Z,2.89
2023-02-12T17:02:31.241Z,2.73
2023-02-12T17:05:37.768Z,2.80
2023-02-12T17:08:45.662Z,2.87
2023-02-12T17:11:51.878Z,2.46
2023-02-12T17:14:57.890Z,2.55
2023-02-12T17:18:04.142Z,2.55
2023-02-12T17:21:19.732Z,2.83
2023-02-12T17:24:29.521Z,2.85
2023-02-12T17:27:38.077Z,2.93
2023-02-12T17:30:45.013Z,2.91
2023-02-12T17:33:51.195Z,2.72
2023-02-12T17:36:57.497Z,2.73
2023-02-12T17:40:05.228Z,2.89
2023-02-12T17:43:11.741Z,2.93
2023-02-12T17:46:22.001Z,3.08
2023-02-12T17:49:28.437Z,2.97
2023-02-12T17:52:34.739Z,2.79
2023-02-12T17:55:42.729Z,2.74
2023-02-12T17:58:50.582Z,3.02
2023-02-12T18:01:57.213Z,3.05
2023-02-12T18:05:03.364Z,2.95
2023-02-12T18:08:10.305Z,2.98
2023-02-12T18:11:19.145Z,2.84
2023-02-12T18:14:25.612Z,2.98
2023-02-12T18:17:31.974Z,2.74
2023-02-12T18:20:40.615Z,2.92
2023-02-12T18:23:46.739Z,2.88
2023-02-12T18:26:54.427Z,2.99
2023-02-12T18:30:00.708Z,2.87
2023-02-12T18:33:07.445Z,2.78
2023-02-12T18:36:15.853Z,2.71
2023-02-12T18:39:22.300Z,2.60
2023-02-12T18:42:30.307Z,2.67
2023-02-12T18:45:36.810Z,2.43
2023-02-12T18:48:43.619Z,2.54
2023-02-12T18:51:49.944Z,2.40
2023-02-12T18:54:56.362Z,2.36
2023-02-12T18:58:03.937Z,2.44
2023-02-12T19:01:14.898Z,2.20
2023-02-12T19:04:24.399Z,2.26
2023-02-12T19:07:30.573Z,2.26
2023-02-12T19:10:40.063Z,2.03
2023-02-12T19:13:47.626Z,2.14
2023-02-12T19:16:54.617Z,2.21
2023-02-12T19:20:00.969Z,1.94
2023-02-12T19:23:07.358Z,1.98
2023-02-12T19:26:15.678Z,2.15
2023-02-12T19:29:23.256Z,2.06
2023-02-12T19:32:29.888Z,1.84
2023-02-12T19:35:36.343Z,1.83
2023-02-12T19:38:43.316Z,2.03
2023-02-12T19:41:50.561Z,2.01
2023-02-12T19:44:58.621Z,1.60
2023-02-12T19:48:05.199Z,1.70
2023-02-12T19:51:15.151Z,1.59
2023-02-12T19:54:22.919Z,1.73
2023-02-12T19:57:29.259Z,2.05
2023-02-12T20:00:37.062Z,2.29
2023-02-12T20:03:43.592Z,1.98
2023-02-12T20:06:51.103Z,1.68
2023-02-12T20:09:57.328Z,1.75
2023-02-12T20:13:03.656Z,1.58
2023-02-12T20:16:13.645Z,1.66
2023-02-12T20:19:23.009Z,1.74
2023-02-12T20:22:29.419Z,1.68
2023-02-12T20:25:35.743Z,1.32
2023-02-12T20:28:43.023Z,1.38
2023-02-12T20:31:51.003Z,1.48
2023-02-12T20:34:57.610Z,1.37
2023-02-12T20:38:04.321Z,1.50
2023-02-12T20:41:11.924Z,1.56
2023-02-12T20:44:20.296Z,1.23
2023-02-12T20:47:29.615Z,1.53
2023-02-12T20:50:36.074Z,1.52
2023-02-12T20:53:43.689Z,1.55
2023-02-12T20:56:51.759Z,1.31
2023-02-12T20:59:58.199Z,1.30
2023-02-12T21:03:06.185Z,1.36
2023-02-12T21:06:13.280Z,1.20
2023-02-12T21:09:20.049Z,1.14
2023-02-12T21:12:26.566Z,1.12
2023-02-12T21:15:33.244Z,1.27
2023-02-12T21:18:41.181Z,1.28
2023-02-12T21:21:48.118Z,1.19
2023-02-12T21:24:54.583Z,1.20
2023-02-12T21:28:00.871Z,0.98
2023-02-12T21:31:08.701Z,1.03
2023-02-12T21:34:18.043Z,0.64
2023-02-12T21:37:24.334Z,0.82
2023-02-12T21:40:30.562Z,0.98
2023-02-12T21:43:37.288Z,1.16
2023-02-12T21:46:44.350Z,0.99
2023-02-12T21:49:52.184Z,1.16
2023-02-12T21:52:59.114Z,0.85
2023-02-12T21:56:06.225Z,0.88
2023-02-12T21:59:12.940Z,0.84
2023-02-12T22:02:19.317Z,0.91
2023-02-12T22:05:26.727Z,0.52
2023-02-12T22:08:33.032Z,0.57
2023-02-12T22:11:40.810Z,0.59
2023-02-12T22:14:47.173Z,0.49
2023-02-12T22:17:53.580Z,0.34
2023-02-12T22:21:03.047Z,0.30
2023-02-12T22:24:12.543Z,0.13
2023-02-12T22:27:18.534Z,-0.16
2023-02-12T22:30:24.665Z,-0.16
2023-02-12T22:33:30.728Z,-0.21
2023-02-12T22:36:39.588Z,-0.29
2023-02-12T22:39:45.627Z,-0.28
2023-02-12T22:42:51.527Z,0.06
2023-02-12T22:45:58.000Z,-0.10
2023-02-12T22:49:04.559Z,-0.17
2023-02-12T22:52:12.517Z,-0.10
2023-02-12T22:55:19.042Z,-0.24
2023-02-12T22:58:25.532Z,-0.34
2023-02-12T23:01:32.356Z,-0.46
2023-02-12T23:04:38.763Z,-0.49
2023-02-12T23:07:46.697Z,-0.39
2023-02-12T23:10:52.939Z,-0.64
2023-02-12T23:13:59.740Z,-0.48
2023-02-12T23:17:05.863Z,-0.50
2023-02-12T23:20:13.580Z,-0.61
2023-02-12T23:23:21.844Z,-0.52
2023-02-12T23:26:28.787Z,-0.37
2023-02-12T23:29:35.994Z,-0.61
2023-02-12T23:32:42.423Z,-0.54
2023-02-12T23:35:49.632Z,-0.69
2023-02-12T23:38:57.458Z,-0.69
2023-02-12T23:42:03.967Z,-0.56
2023-02-12T23:45:11.252Z,-0.83
2023-02-12T23:48:17.702Z,-0.81
2023-02-12T23:51:23.722Z,-1.24
2023-02-12T23:54:31.819Z,-1.14
2023-02-12T23:57:37.901Z,-1.20
